createdAt,value
2023-01-07T00:01:41.096Z,79183.63
2023-01-07T00:03:32.276Z,79207.38
2023-01-07T00:05:23.456Z,79237.03
2023-01-07T00:07:14.905Z,79241.00
2023-01-07T00:09:06.922Z,79254.84
2023-01-07T00:11:01.832Z,79266.72
2023-01-07T00:12:53.883Z,79264.75
2023-01-07T00:14:44.856Z,79268.72
2023-01-07T00:16:37.059Z,79264.75
2023-01-07T00:18:28.445Z,79278.59
2023-01-07T00:20:19.746Z,79286.50
2023-01-07T00:22:10.799Z,79290.47
2023-01-07T00:24:03.679Z,79278.59
2023-01-07T00:26:21.074Z,79302.34
2023-01-07T00:28:12.317Z,79310.25
2023-01-07T00:30:04.036Z,79332.03
2023-01-07T00:31:55.422Z,79349.84
2023-01-07T00:33:55.839Z,79369.63
2023-01-07T00:35:47.440Z,79389.41
2023-01-07T00:37:50.518Z,79405.25
2023-01-07T00:39:42.223Z,79421.06
2023-01-07T00:41:33.688Z,79421.06
2023-01-07T00:43:24.588Z,79417.13
2023-01-07T00:45:16.045Z,79405.25
2023-01-07T00:47:07.503Z,79417.13
2023-01-07T00:48:58.906Z,79440.84
2023-01-07T00:50:51.771Z,79444.81
2023-01-07T00:52:43.141Z,79464.59
2023-01-07T00:54:34.471Z,79476.47
2023-01-07T00:56:26.056Z,79492.31
2023-01-07T00:58:22.074Z,79500.22
2023-01-07T01:00:17.199Z,79500.22
2023-01-07T01:02:08.794Z,79496.25
2023-01-07T01:04:00.222Z,79512.09
2023-01-07T01:05:51.941Z,79525.94
2023-01-07T01:07:43.783Z,79531.88
2023-01-07T01:09:35.417Z,79535.84
2023-01-07T01:11:26.757Z,79573.44
2023-01-07T01:13:18.786Z,79587.28
2023-01-07T01:15:15.822Z,79575.41
2023-01-07T01:17:06.931Z,79595.22
2023-01-07T01:18:58.376Z,79587.28
2023-01-07T01:20:49.712Z,79599.16
2023-01-07T01:22:40.762Z,79622.91
2023-01-07T01:24:32.197Z,79622.91
2023-01-07T01:26:23.567Z,79630.81
2023-01-07T01:28:14.887Z,79630.81
2023-01-07T01:30:07.074Z,79626.88
2023-01-07T01:32:01.396Z,79632.81
2023-01-07T01:33:55.229Z,79634.78
2023-01-07T01:35:47.576Z,79646.66
2023-01-07T01:37:38.807Z,79656.56
2023-01-07T01:39:31.059Z,79656.56
2023-01-07T01:41:22.777Z,79636.75
2023-01-07T01:43:45.378Z,79650.63
2023-01-07T01:45:37.063Z,79638.75
2023-01-07T01:47:33.764Z,79658.53
2023-01-07T01:49:33.315Z,79658.53
2023-01-07T01:51:27.955Z,79666.44
2023-01-07T01:53:30.843Z,79684.25
2023-01-07T01:55:29.896Z,79684.25
2023-01-07T01:57:22.990Z,79696.13
2023-01-07T01:59:21.395Z,79706.03
2023-01-07T02:01:13.453Z,79713.94
2023-01-07T02:03:06.474Z,79725.81
2023-01-07T02:04:58.456Z,79704.03
2023-01-07T02:06:59.238Z,79694.16
2023-01-07T02:08:52.621Z,79678.31
2023-01-07T02:10:44.611Z,79670.41
2023-01-07T02:12:56.033Z,79678.31
2023-01-07T02:14:50.351Z,79678.31
2023-01-07T02:16:51.288Z,79704.03
2023-01-07T02:18:45.556Z,79709.97
2023-01-07T02:20:43.133Z,79715.91
2023-01-07T02:22:40.466Z,79725.81
2023-01-07T02:24:40.718Z,79733.72
2023-01-07T02:26:58.338Z,79745.59
2023-01-07T02:28:52.765Z,79737.69
2023-01-07T02:31:02.610Z,79757.47
2023-01-07T02:33:02.989Z,79749.56
2023-01-07T02:35:09.845Z,79755.50
2023-01-07T02:37:07.109Z,79757.47
2023-01-07T02:39:13.074Z,79759.47
2023-01-07T02:41:16.883Z,79765.41
2023-01-07T02:43:11.137Z,79773.31
2023-01-07T02:45:08.294Z,79777.28
2023-01-07T02:47:07.788Z,79779.25
2023-01-07T02:49:00.276Z,79787.16
2023-01-07T02:50:51.556Z,79801.00
2023-01-07T02:52:42.810Z,79820.81
2023-01-07T02:54:33.955Z,79824.75
2023-01-07T02:56:46.676Z,79838.63
2023-01-07T02:58:59.176Z,79832.69
2023-01-07T03:01:08.847Z,79836.63
2023-01-07T03:03:18.497Z,79848.50
2023-01-07T03:05:10.068Z,79864.34
2023-01-07T03:07:03.988Z,79876.22
2023-01-07T03:09:15.292Z,79888.09
2023-01-07T03:11:08.766Z,79899.97
2023-01-07T03:13:06.353Z,79907.88
2023-01-07T03:15:14.427Z,79921.72
2023-01-07T03:17:07.900Z,79913.81
2023-01-07T03:19:01.637Z,79913.81
2023-01-07T03:20:57.531Z,79931.63
2023-01-07T03:22:51.172Z,79919.75
2023-01-07T03:24:42.581Z,79941.53
2023-01-07T03:26:37.813Z,79931.63
2023-01-07T03:28:31.854Z,79933.59
2023-01-07T03:30:25.539Z,79951.41
2023-01-07T03:32:23.741Z,79953.41
2023-01-07T03:34:17.808Z,79947.47
2023-01-07T03:36:15.116Z,79971.22
2023-01-07T03:38:06.760Z,79967.25
2023-01-07T03:40:00.278Z,79955.38
2023-01-07T03:42:10.340Z,79965.28
2023-01-07T03:44:02.053Z,79967.25
2023-01-07T03:45:55.409Z,79967.25
2023-01-07T03:47:48.166Z,79987.03
2023-01-07T03:49:40.016Z,79994.97
2023-01-07T03:51:31.579Z,80006.84
2023-01-07T03:53:23.258Z,80018.72
2023-01-07T03:55:15.848Z,80018.72
2023-01-07T03:57:07.079Z,80002.88
2023-01-07T03:58:58.230Z,80018.72
2023-01-07T04:00:49.595Z,80018.72
2023-01-07T04:02:43.529Z,80048.41
2023-01-07T04:04:43.197Z,80036.53
2023-01-07T04:06:35.753Z,80024.66
2023-01-07T04:08:27.068Z,80016.72
2023-01-07T04:10:18.533Z,80018.72
2023-01-07T04:12:09.805Z,80018.72
2023-01-07T04:14:01.738Z,80050.38
2023-01-07T04:15:53.949Z,80080.06
2023-01-07T04:17:45.130Z,80125.59
2023-01-07T04:19:39.006Z,80101.84
2023-01-07T04:21:30.075Z,80082.03
2023-01-07T04:23:21.450Z,80074.13
2023-01-07T04:25:14.614Z,80070.16
2023-01-07T04:27:06.168Z,80072.16
2023-01-07T04:28:57.983Z,80078.09
2023-01-07T04:30:51.087Z,80089.97
2023-01-07T04:32:43.796Z,80087.97
2023-01-07T04:34:35.776Z,80078.09
2023-01-07T04:36:28.326Z,80062.25
2023-01-07T04:38:19.928Z,80074.13
2023-01-07T04:40:11.187Z,80097.88
2023-01-07T04:42:03.812Z,80097.88
2023-01-07T04:43:55.661Z,80109.75
2023-01-07T04:45:47.449Z,80103.81
2023-01-07T04:47:40.491Z,80133.50
2023-01-07T04:49:31.936Z,80145.38
2023-01-07T04:51:23.301Z,80175.06
2023-01-07T04:53:15.635Z,80188.91
2023-01-07T04:55:07.850Z,80177.03
2023-01-07T04:56:59.197Z,80149.34
2023-01-07T04:58:50.575Z,80086.00
2023-01-07T05:00:42.415Z,80068.19
2023-01-07T05:02:35.064Z,80002.88
2023-01-07T05:04:27.031Z,79935.59
2023-01-07T05:06:19.321Z,79913.81
2023-01-07T05:08:11.703Z,79880.19
2023-01-07T05:10:04.316Z,79860.38
2023-01-07T05:11:55.820Z,79814.88
2023-01-07T05:13:47.555Z,79761.44
2023-01-07T05:15:38.672Z,79708.00
2023-01-07T05:17:30.203Z,79688.22
2023-01-07T05:19:22.306Z,79595.22
2023-01-07T05:21:14.058Z,79531.88
2023-01-07T05:23:06.051Z,79472.53
2023-01-07T05:24:58.273Z,79387.44
2023-01-07T05:26:51.550Z,79294.44
2023-01-07T05:28:43.913Z,79235.06
2023-01-07T05:30:35.243Z,79140.09
2023-01-07T05:32:27.888Z,79155.91
2023-01-07T05:34:19.987Z,79146.03
2023-01-07T05:36:11.381Z,79181.63
2023-01-07T05:38:03.084Z,79179.66
2023-01-07T05:39:54.248Z,79148.00
2023-01-07T05:41:45.844Z,79207.38
2023-01-07T05:43:37.174Z,79142.06
2023-01-07T05:45:28.134Z,79142.06
2023-01-07T05:47:19.092Z,79132.19
2023-01-07T05:49:10.844Z,79179.66
2023-01-07T05:51:01.866Z,79177.69
2023-01-07T05:52:53.066Z,79221.22
2023-01-07T05:54:44.592Z,79217.25
2023-01-07T05:56:35.993Z,79272.66
2023-01-07T05:58:27.939Z,79146.03
2023-01-07T06:00:19.149Z,79151.97
2023-01-07T06:02:10.127Z,79175.72
2023-01-07T06:04:01.162Z,79290.47
2023-01-07T06:05:52.517Z,79375.56
2023-01-07T06:07:43.619Z,79470.53
2023-01-07T06:09:34.620Z,79527.94
2023-01-07T06:11:26.217Z,79512.09
2023-01-07T06:13:17.580Z,79490.31
2023-01-07T06:15:09.407Z,79373.56
2023-01-07T06:17:04.020Z,79334.00
2023-01-07T06:18:55.429Z,79278.59
2023-01-07T06:20:47.040Z,79286.50
2023-01-07T06:22:38.812Z,79286.50
2023-01-07T06:24:29.901Z,79434.91
2023-01-07T06:26:20.920Z,79595.22
2023-01-07T06:28:12.206Z,79607.09
2023-01-07T06:30:04.888Z,79613.00
2023-01-07T06:31:56.198Z,79581.34
2023-01-07T06:33:48.013Z,79510.13
2023-01-07T06:35:39.316Z,79696.13
2023-01-07T06:37:30.426Z,79844.56
2023-01-07T06:39:21.754Z,79880.19
2023-01-07T06:41:12.780Z,79945.47
2023-01-07T06:43:04.088Z,79947.47
2023-01-07T06:44:55.912Z,79892.06
2023-01-07T06:46:46.841Z,79862.38
2023-01-07T06:48:37.916Z,79826.75
2023-01-07T06:50:29.146Z,79765.41
2023-01-07T06:52:20.702Z,79735.72
2023-01-07T06:54:12.015Z,79789.13
2023-01-07T06:56:03.493Z,79753.53
2023-01-07T06:57:54.778Z,79781.22
2023-01-07T06:59:46.432Z,79706.03
2023-01-07T07:01:37.993Z,79725.81
2023-01-07T07:03:29.398Z,79818.81
2023-01-07T07:05:20.576Z,79858.41
2023-01-07T07:07:11.926Z,79840.59
2023-01-07T07:09:03.333Z,79848.50
2023-01-07T07:10:54.499Z,79872.25
2023-01-07T07:12:46.240Z,79868.31
2023-01-07T07:14:37.621Z,79828.72
2023-01-07T07:16:29.361Z,79814.88
2023-01-07T07:18:21.888Z,79826.75
2023-01-07T07:20:13.284Z,79854.44
2023-01-07T07:22:04.860Z,79848.50
2023-01-07T07:23:56.554Z,79820.81
2023-01-07T07:25:47.871Z,79836.63
2023-01-07T07:27:39.475Z,79808.94
2023-01-07T07:29:31.071Z,79864.34
2023-01-07T07:31:22.369Z,79852.47
2023-01-07T07:33:15.238Z,79872.25
2023-01-07T07:35:06.892Z,79868.31
2023-01-07T07:36:57.891Z,79846.53
2023-01-07T07:38:49.216Z,79860.38
2023-01-07T07:40:41.074Z,79824.75
2023-01-07T07:42:32.323Z,79905.91
2023-01-07T07:44:43.630Z,79983.09
2023-01-07T07:46:35.430Z,79973.19
2023-01-07T07:48:27.225Z,79957.34
2023-01-07T07:50:18.808Z,80038.50
2023-01-07T07:52:10.695Z,80014.75
2023-01-07T07:54:02.064Z,80046.41
2023-01-07T07:55:53.654Z,80048.41
2023-01-07T07:57:45.180Z,80050.38
2023-01-07T07:59:36.237Z,80050.38
2023-01-07T08:01:27.508Z,80046.41
2023-01-07T08:03:19.146Z,80097.88
2023-01-07T08:05:11.904Z,80101.84
2023-01-07T08:07:03.267Z,80137.47
2023-01-07T08:08:54.429Z,80153.28
2023-01-07T08:10:45.991Z,80121.63
2023-01-07T08:12:38.728Z,80151.31
2023-01-07T08:14:30.349Z,80151.31
2023-01-07T08:16:21.877Z,80155.25
2023-01-07T08:18:13.810Z,80133.50
2023-01-07T08:20:05.411Z,80161.22
2023-01-07T08:21:56.684Z,80125.59
2023-01-07T08:23:47.970Z,80101.84
2023-01-07T08:25:39.459Z,80066.22
2023-01-07T08:27:31.311Z,80064.22
2023-01-07T08:29:23.422Z,80058.28
2023-01-07T08:31:14.902Z,80022.66
2023-01-07T08:33:07.412Z,80026.63
2023-01-07T08:34:58.749Z,80018.72
2023-01-07T08:36:50.399Z,80030.59
2023-01-07T08:38:41.963Z,80044.44
2023-01-07T08:40:33.224Z,80034.53
2023-01-07T08:42:24.941Z,80028.59
2023-01-07T08:44:16.418Z,80004.84
2023-01-07T08:46:07.692Z,80064.22
2023-01-07T08:47:59.354Z,80032.56
2023-01-07T08:49:50.418Z,80022.66
2023-01-07T08:51:41.611Z,80020.69
2023-01-07T08:53:33.716Z,80030.59
2023-01-07T08:55:25.292Z,80046.41
2023-01-07T08:57:17.737Z,80054.34
2023-01-07T08:59:09.110Z,80046.41
2023-01-07T09:01:06.239Z,80044.44
2023-01-07T09:02:58.024Z,80080.06
2023-01-07T09:04:49.840Z,80074.13
2023-01-07T09:06:41.548Z,80101.84
2023-01-07T09:08:32.845Z,80076.09
2023-01-07T09:10:24.563Z,80074.13
2023-01-07T09:12:16.276Z,80054.34
2023-01-07T09:14:07.747Z,80058.28
2023-01-07T09:16:00.509Z,80076.09
2023-01-07T09:17:52.639Z,80089.97
2023-01-07T09:19:43.918Z,80074.13
2023-01-07T09:21:35.303Z,80101.84
2023-01-07T09:23:26.683Z,80064.22
2023-01-07T09:25:17.759Z,80058.28
2023-01-07T09:27:09.376Z,80054.34
2023-01-07T09:29:01.372Z,80022.66
2023-01-07T09:30:52.511Z,80022.66
2023-01-07T09:32:44.546Z,80038.50
2023-01-07T09:34:36.220Z,80050.38
2023-01-07T09:36:27.472Z,80054.34
2023-01-07T09:38:18.780Z,80056.31
2023-01-07T09:40:19.804Z,80074.13
2023-01-07T09:42:25.781Z,80062.25
2023-01-07T09:44:25.614Z,80004.84
2023-01-07T09:46:18.746Z,80038.50
2023-01-07T09:48:31.325Z,80125.59
2023-01-07T09:50:25.017Z,80165.16
2023-01-07T09:52:19.896Z,80169.13
2023-01-07T09:54:24.889Z,80184.97
2023-01-07T09:56:21.273Z,80212.66
2023-01-07T09:58:17.601Z,80210.69
2023-01-07T10:00:20.511Z,80226.53
2023-01-07T10:02:28.543Z,80224.53
2023-01-07T10:04:26.080Z,80246.31
2023-01-07T10:06:38.356Z,80186.94
2023-01-07T10:08:52.157Z,80238.41
2023-01-07T10:10:50.125Z,80234.44
2023-01-07T10:12:41.984Z,80248.28
2023-01-07T10:14:52.153Z,80234.44
2023-01-07T10:17:09.818Z,80250.28
2023-01-07T10:19:19.277Z,80232.44
2023-01-07T10:21:17.227Z,80258.19
2023-01-07T10:23:24.282Z,80236.41
2023-01-07T10:25:18.948Z,80242.34
2023-01-07T10:27:15.998Z,80256.22
2023-01-07T10:29:11.865Z,80285.91
2023-01-07T10:31:03.579Z,80285.91
2023-01-07T10:32:59.654Z,80311.63
2023-01-07T10:34:54.492Z,80285.91
2023-01-07T10:37:02.055Z,80291.84
2023-01-07T10:38:53.664Z,80287.88
2023-01-07T10:40:49.117Z,80289.84
2023-01-07T10:43:10.161Z,80325.47
2023-01-07T10:45:10.691Z,80309.66
2023-01-07T10:47:16.603Z,80307.66
2023-01-07T10:49:33.899Z,80327.47
2023-01-07T10:51:25.132Z,80307.66
2023-01-07T10:53:27.881Z,80287.88
2023-01-07T10:55:22.371Z,80295.78
2023-01-07T10:57:19.769Z,80295.78
2023-01-07T10:59:22.237Z,80287.88
2023-01-07T11:01:21.903Z,80317.56
2023-01-07T11:03:23.364Z,80307.66
2023-01-07T11:05:15.047Z,80307.66
2023-01-07T11:07:07.803Z,80309.66
2023-01-07T11:08:59.126Z,80319.53
2023-01-07T11:10:50.492Z,80319.53
2023-01-07T11:12:51.033Z,80323.50
2023-01-07T11:14:43.112Z,80367.03
2023-01-07T11:16:44.365Z,80371.00
2023-01-07T11:18:49.648Z,80372.97
2023-01-07T11:20:46.295Z,80367.03
2023-01-07T11:22:38.969Z,80382.88
2023-01-07T11:24:31.565Z,80386.84
2023-01-07T11:26:40.914Z,80406.63
2023-01-07T11:28:33.862Z,80394.75
2023-01-07T11:30:26.998Z,80400.69
2023-01-07T11:32:20.795Z,80462.03
2023-01-07T11:34:35.946Z,80450.16
2023-01-07T11:36:41.120Z,80471.94
2023-01-07T11:38:34.860Z,80466.00
2023-01-07T11:40:29.599Z,80469.97
2023-01-07T11:42:38.858Z,80481.84
2023-01-07T11:44:30.773Z,80511.53
2023-01-07T11:46:25.892Z,80507.56
2023-01-07T11:48:32.636Z,80517.47
2023-01-07T11:50:26.900Z,80537.25
2023-01-07T11:52:21.635Z,80555.06
2023-01-07T11:54:19.773Z,80557.06
2023-01-07T11:56:28.439Z,80566.94
2023-01-07T11:58:30.025Z,80576.84
2023-01-07T12:00:22.917Z,80572.88
2023-01-07T12:02:25.190Z,80616.44
2023-01-07T12:04:24.847Z,80614.47
2023-01-07T12:06:18.719Z,80612.47
2023-01-07T12:08:19.399Z,80636.22
2023-01-07T12:10:28.777Z,80642.16
2023-01-07T12:12:39.661Z,80658.00
2023-01-07T12:14:32.147Z,80652.06
2023-01-07T12:16:30.683Z,80675.81
2023-01-07T12:18:34.692Z,80687.69
2023-01-07T12:20:29.109Z,80707.50
2023-01-07T12:22:38.961Z,80711.44
2023-01-07T12:24:37.925Z,80727.28
2023-01-07T12:26:44.402Z,80713.44
2023-01-07T12:28:35.980Z,80743.13
2023-01-07T12:30:28.180Z,80756.97
2023-01-07T12:32:31.911Z,80755.00
2023-01-07T12:34:26.620Z,80745.09
2023-01-07T12:36:18.191Z,80751.03
2023-01-07T12:38:12.823Z,80770.84
2023-01-07T12:40:13.353Z,80758.97
2023-01-07T12:42:09.429Z,80776.78
2023-01-07T12:44:04.277Z,80766.88
2023-01-07T12:46:06.403Z,80778.75
2023-01-07T12:48:04.787Z,80794.59
2023-01-07T12:49:57.147Z,80786.66
2023-01-07T12:51:48.425Z,80798.53
2023-01-07T12:53:44.065Z,80804.47
2023-01-07T12:55:37.658Z,80818.34
2023-01-07T12:57:31.038Z,80842.09
2023-01-07T12:59:45.553Z,80846.06
2023-01-07T13:01:45.345Z,80848.03
2023-01-07T13:04:01.967Z,80846.06
2023-01-07T13:05:55.494Z,80842.09
2023-01-07T13:07:56.273Z,80844.06
2023-01-07T13:10:06.138Z,80844.06
2023-01-07T13:12:42.437Z,80848.03
2023-01-07T13:14:38.519Z,80863.88
2023-01-07T13:16:30.332Z,80865.84
2023-01-07T13:18:25.425Z,80881.69
2023-01-07T13:20:18.602Z,80885.66
2023-01-07T13:22:24.909Z,80889.59
2023-01-07T13:24:19.301Z,80889.59
2023-01-07T13:26:28.977Z,80893.56
2023-01-07T13:28:29.644Z,80907.41
2023-01-07T13:30:27.088Z,80903.47
2023-01-07T13:32:23.011Z,80915.34
2023-01-07T13:34:32.895Z,80911.38
2023-01-07T13:36:33.320Z,80917.31
2023-01-07T13:38:38.795Z,80933.16
2023-01-07T13:40:33.339Z,80945.03
2023-01-07T13:42:33.958Z,80945.03
2023-01-07T13:44:44.181Z,80956.91
2023-01-07T13:46:37.210Z,80952.94
2023-01-07T13:48:29.763Z,80960.88
2023-01-07T13:50:32.688Z,80964.81
2023-01-07T13:52:26.090Z,80968.78
2023-01-07T13:54:47.123Z,80980.66
2023-01-07T13:56:39.695Z,80982.63
2023-01-07T13:58:30.901Z,80986.59
2023-01-07T14:00:41.108Z,80984.63
2023-01-07T14:02:51.566Z,80992.53
2023-01-07T14:04:50.180Z,81000.47
2023-01-07T14:06:53.078Z,81000.47
2023-01-07T14:08:58.167Z,80994.50
2023-01-07T14:10:53.207Z,80976.69
2023-01-07T14:12:58.949Z,80988.56
2023-01-07T14:14:58.380Z,80994.50
2023-01-07T14:17:02.218Z,81012.34
2023-01-07T14:18:56.299Z,81024.22
2023-01-07T14:20:56.003Z,81024.22
2023-01-07T14:22:54.371Z,81028.16
2023-01-07T14:24:51.142Z,81049.94
2023-01-07T14:27:02.587Z,81038.06
2023-01-07T14:29:09.477Z,81061.81
2023-01-07T14:31:00.573Z,81067.75
2023-01-07T14:32:58.421Z,81067.75
2023-01-07T14:35:13.337Z,81063.81
2023-01-07T14:37:12.151Z,81055.88
2023-01-07T14:39:03.941Z,81049.94
2023-01-07T14:41:09.212Z,81049.94
2023-01-07T14:43:03.799Z,81047.97
2023-01-07T14:44:55.220Z,81055.88
2023-01-07T14:46:48.003Z,81047.97
2023-01-07T14:48:39.781Z,81061.81
2023-01-07T14:50:38.269Z,81055.88
2023-01-07T14:52:39.193Z,81049.94
2023-01-07T14:54:49.216Z,81030.16
2023-01-07T14:56:59.518Z,81046.00
2023-01-07T14:58:50.839Z,81042.03
2023-01-07T15:00:51.697Z,81046.00
2023-01-07T15:02:42.797Z,81032.13
2023-01-07T15:04:36.765Z,81038.06
2023-01-07T15:06:35.675Z,81028.16
2023-01-07T15:08:48.090Z,81032.13
2023-01-07T15:10:59.093Z,81020.25
2023-01-07T15:13:11.936Z,81014.31
2023-01-07T15:15:24.147Z,81000.47
2023-01-07T15:17:16.666Z,81004.41
2023-01-07T15:19:08.682Z,81014.31
2023-01-07T15:21:10.046Z,81000.47
2023-01-07T15:23:10.357Z,81000.47
2023-01-07T15:25:24.833Z,80996.50
2023-01-07T15:27:35.352Z,81000.47
2023-01-07T15:29:26.534Z,81032.13
2023-01-07T15:31:37.387Z,81032.13
2023-01-07T15:33:39.436Z,81024.22
2023-01-07T15:35:37.979Z,81034.09
2023-01-07T15:37:29.386Z,81040.03
2023-01-07T15:39:29.141Z,81040.03
2023-01-07T15:41:32.553Z,81028.16
2023-01-07T15:43:25.878Z,81040.03
2023-01-07T15:45:22.834Z,81034.09
2023-01-07T15:47:32.163Z,81034.09
2023-01-07T15:49:24.920Z,81036.09
2023-01-07T15:51:17.935Z,81047.97
2023-01-07T15:53:11.985Z,81044.00
2023-01-07T15:55:16.874Z,81042.03
2023-01-07T15:57:11.360Z,81030.16
2023-01-07T15:59:07.707Z,81044.00
2023-01-07T16:01:00.194Z,81055.88
2023-01-07T16:02:52.556Z,81047.97
2023-01-07T16:04:44.605Z,81051.94
2023-01-07T16:06:39.597Z,81049.94
2023-01-07T16:08:32.934Z,81051.94
2023-01-07T16:10:24.112Z,81046.00
2023-01-07T16:12:28.176Z,81042.03
2023-01-07T16:14:21.300Z,81044.00
2023-01-07T16:16:15.726Z,81042.03
2023-01-07T16:18:11.269Z,81059.84
2023-01-07T16:20:09.274Z,81057.88
2023-01-07T16:22:00.743Z,81051.94
2023-01-07T16:23:52.080Z,81051.94
2023-01-07T16:25:49.250Z,81049.94
2023-01-07T16:27:40.979Z,81044.00
2023-01-07T16:29:38.332Z,81067.75
2023-01-07T16:31:30.521Z,81051.94
2023-01-07T16:33:23.238Z,81061.81
2023-01-07T16:35:21.046Z,81038.06
2023-01-07T16:37:15.968Z,81044.00
2023-01-07T16:39:14.762Z,81044.00
2023-01-07T16:41:06.238Z,81042.03
2023-01-07T16:42:58.325Z,81047.97
2023-01-07T16:44:55.608Z,81053.91
2023-01-07T16:47:04.899Z,81046.00
2023-01-07T16:49:19.664Z,81049.94
2023-01-07T16:51:30.036Z,81047.97
2023-01-07T16:53:23.090Z,81059.84
2023-01-07T16:55:34.958Z,81073.69
2023-01-07T16:57:26.042Z,81067.75
2023-01-07T16:59:17.239Z,81047.97
2023-01-07T17:01:10.126Z,81063.81
2023-01-07T17:03:01.197Z,81055.88
2023-01-07T17:04:52.518Z,81059.84
2023-01-07T17:06:44.186Z,81051.94
2023-01-07T17:08:35.910Z,81059.84
2023-01-07T17:10:29.614Z,81071.72
2023-01-07T17:12:29.045Z,81063.81
2023-01-07T17:14:43.563Z,81063.81
2023-01-07T17:16:36.097Z,81069.75
2023-01-07T17:18:27.960Z,81063.81
2023-01-07T17:20:22.489Z,81075.69
2023-01-07T17:22:38.435Z,81073.69
2023-01-07T17:24:29.584Z,81089.53
2023-01-07T17:26:24.711Z,81085.56
2023-01-07T17:28:19.687Z,81091.53
2023-01-07T17:30:19.416Z,81079.63
2023-01-07T17:32:13.295Z,81087.56
2023-01-07T17:34:10.877Z,81089.53
2023-01-07T17:36:05.592Z,81099.44
2023-01-07T17:37:58.336Z,81079.63
2023-01-07T17:39:52.222Z,81091.53
2023-01-07T17:42:02.550Z,81107.34
2023-01-07T17:43:53.437Z,81119.22
2023-01-07T17:45:46.604Z,81121.22
2023-01-07T17:47:40.734Z,81113.28
2023-01-07T17:49:31.865Z,81117.25
2023-01-07T17:51:23.790Z,81131.09
2023-01-07T17:53:24.147Z,81119.22
2023-01-07T17:55:16.434Z,81121.22
2023-01-07T17:57:08.651Z,81139.03
2023-01-07T17:59:00.119Z,81139.03
2023-01-07T18:00:51.324Z,81143.00
2023-01-07T18:02:45.827Z,81139.03
2023-01-07T18:04:37.566Z,81143.00
2023-01-07T18:06:31.491Z,81146.94
2023-01-07T18:08:25.687Z,81150.91
2023-01-07T18:10:18.218Z,81162.78
2023-01-07T18:12:33.834Z,81154.88
2023-01-07T18:14:25.766Z,81162.78
2023-01-07T18:16:17.183Z,81162.78
2023-01-07T18:18:09.671Z,81162.78
2023-01-07T18:20:04.492Z,81170.69
2023-01-07T18:21:59.224Z,81154.88
2023-01-07T18:23:51.352Z,81154.88
2023-01-07T18:25:46.039Z,81150.91
2023-01-07T18:27:37.917Z,81146.94
2023-01-07T18:29:29.693Z,81150.91
2023-01-07T18:31:21.527Z,81162.78
2023-01-07T18:33:14.072Z,81166.75
2023-01-07T18:35:06.343Z,81182.56
2023-01-07T18:36:58.381Z,81182.56
2023-01-07T18:38:51.151Z,81170.69
2023-01-07T18:40:42.873Z,81180.59
2023-01-07T18:42:34.659Z,81178.63
2023-01-07T18:44:26.451Z,81194.47
2023-01-07T18:46:18.019Z,81198.41
2023-01-07T18:48:09.385Z,81214.25
2023-01-07T18:50:01.082Z,81206.34
2023-01-07T18:51:53.775Z,81202.38
2023-01-07T18:53:45.530Z,81188.53
2023-01-07T18:55:38.154Z,81204.34
2023-01-07T18:57:29.499Z,81202.38
2023-01-07T18:59:22.040Z,81188.53
2023-01-07T19:01:13.830Z,81206.34
2023-01-07T19:03:05.472Z,81208.31
2023-01-07T19:04:56.560Z,81218.22
2023-01-07T19:06:48.217Z,81210.28
2023-01-07T19:08:42.075Z,81208.31
2023-01-07T19:10:33.712Z,81216.22
2023-01-07T19:12:25.145Z,81216.22
2023-01-07T19:14:16.414Z,81228.13
2023-01-07T19:16:08.701Z,81212.28
2023-01-07T19:18:00.055Z,81218.22
2023-01-07T19:19:52.318Z,81236.03
2023-01-07T19:21:44.119Z,81238.00
2023-01-07T19:23:37.063Z,81234.06
2023-01-07T19:25:31.518Z,81222.16
2023-01-07T19:27:23.680Z,81228.13
2023-01-07T19:29:15.911Z,81230.09
2023-01-07T19:31:08.565Z,81241.97
2023-01-07T19:33:00.163Z,81234.06
2023-01-07T19:34:54.216Z,81234.06
2023-01-07T19:36:49.568Z,81249.88
2023-01-07T19:38:41.806Z,81232.06
2023-01-07T19:40:33.853Z,81218.22
2023-01-07T19:42:26.030Z,81236.03
2023-01-07T19:44:17.648Z,81226.13
2023-01-07T19:46:10.802Z,81218.22
2023-01-07T19:48:02.482Z,81210.28
2023-01-07T19:49:53.687Z,81224.16
2023-01-07T19:51:45.561Z,81204.34
2023-01-07T19:53:36.611Z,81230.09
2023-01-07T19:55:28.376Z,81218.22
2023-01-07T19:57:20.277Z,81218.22
2023-01-07T19:59:11.846Z,81232.06
2023-01-07T20:01:26.704Z,81241.97
2023-01-07T20:03:18.447Z,81234.06
2023-01-07T20:05:10.070Z,81226.13
2023-01-07T20:07:01.676Z,81230.09
2023-01-07T20:08:54.980Z,81241.97
2023-01-07T20:10:55.144Z,81238.00
2023-01-07T20:12:46.369Z,81240.00
2023-01-07T20:14:37.892Z,81241.97
2023-01-07T20:16:29.385Z,81232.06
2023-01-07T20:18:20.861Z,81218.22
2023-01-07T20:20:12.266Z,81214.25
2023-01-07T20:22:04.047Z,81210.28
2023-01-07T20:23:55.369Z,81210.28
2023-01-07T20:25:46.831Z,81202.38
2023-01-07T20:27:38.436Z,81222.16
2023-01-07T20:29:29.849Z,81208.31
2023-01-07T20:31:21.940Z,81216.22
2023-01-07T20:33:13.785Z,81216.22
2023-01-07T20:35:05.585Z,81202.38
2023-01-07T20:36:57.473Z,81200.41
2023-01-07T20:38:49.278Z,81206.34
2023-01-07T20:40:42.448Z,81204.34
2023-01-07T20:42:34.743Z,81218.22
2023-01-07T20:44:26.379Z,81216.22
2023-01-07T20:46:18.659Z,81218.22
2023-01-07T20:48:12.420Z,81226.13
2023-01-07T20:50:04.518Z,81218.22
2023-01-07T20:51:56.381Z,81226.13
2023-01-07T20:53:48.275Z,81226.13
2023-01-07T20:55:40.207Z,81212.28
2023-01-07T20:57:31.630Z,81236.03
2023-01-07T20:59:23.311Z,81208.31
2023-01-07T21:01:16.077Z,81214.25
2023-01-07T21:03:08.296Z,81220.19
2023-01-07T21:05:00.630Z,81234.06
2023-01-07T21:06:52.667Z,81238.00
2023-01-07T21:08:44.500Z,81238.00
2023-01-07T21:10:37.171Z,81240.00
2023-01-07T21:12:28.619Z,81240.00
2023-01-07T21:14:19.897Z,81232.06
2023-01-07T21:16:12.429Z,81241.97
2023-01-07T21:18:04.956Z,81236.03
2023-01-07T21:19:56.830Z,81241.97
2023-01-07T21:21:49.058Z,81236.03
2023-01-07T21:23:40.220Z,81240.00
2023-01-07T21:25:31.419Z,81238.00
2023-01-07T21:27:22.383Z,81230.09
2023-01-07T21:29:16.204Z,81236.03
2023-01-07T21:31:09.326Z,81245.94
2023-01-07T21:33:00.857Z,81228.13
2023-01-07T21:34:53.447Z,81238.00
2023-01-07T21:36:44.839Z,81230.09
2023-01-07T21:38:36.491Z,81226.13
2023-01-07T21:40:28.222Z,81226.13
2023-01-07T21:42:19.548Z,81226.13
2023-01-07T21:44:15.299Z,81224.16
2023-01-07T21:46:07.249Z,81228.13
2023-01-07T21:47:58.658Z,81226.13
2023-01-07T21:49:53.522Z,81234.06
2023-01-07T21:51:45.059Z,81230.09
2023-01-07T21:53:37.272Z,81232.06
2023-01-07T21:55:29.214Z,81224.16
2023-01-07T21:57:20.409Z,81236.03
2023-01-07T21:59:18.199Z,81226.13
2023-01-07T22:01:10.585Z,81234.06
2023-01-07T22:03:02.117Z,81230.09
2023-01-07T22:04:53.546Z,81240.00
2023-01-07T22:06:45.290Z,81241.97
2023-01-07T22:08:36.574Z,81251.88
2023-01-07T22:10:28.029Z,81273.66
2023-01-07T22:12:19.558Z,81257.81
2023-01-07T22:14:16.075Z,81269.69
2023-01-07T22:16:07.728Z,81283.53
2023-01-07T22:17:58.934Z,81273.66
2023-01-07T22:19:49.772Z,81265.72
2023-01-07T22:21:41.274Z,81285.53
2023-01-07T22:23:32.593Z,81301.38
2023-01-07T22:25:23.880Z,81303.34
2023-01-07T22:27:15.131Z,81303.34
2023-01-07T22:29:07.554Z,81313.25
2023-01-07T22:31:00.280Z,81301.38
2023-01-07T22:32:51.365Z,81313.25
2023-01-07T22:34:42.740Z,81311.25